createdAt,value
2019-03-12T00:00:23.081Z,2.28
2019-03-12T00:02:53.736Z,2.28
2019-03-12T00:05:23.592Z,2.29
2019-03-12T00:07:54.118Z,2.30
2019-03-12T00:10:24.070Z,2.31
2019-03-12T00:12:54.602Z,2.32
2019-03-12T00:15:24.664Z,2.23
2019-03-12T00:17:55.188Z,2.17
2019-03-12T00:20:25.040Z,2.13
2019-03-12T00:22:55.468Z,2.06
2019-03-12T00:25:25.532Z,2.12
2019-03-12T00:27:55.955Z,2.16
2019-03-12T00:30:26.018Z,2.11
2019-03-12T00:32:56.545Z,2.09
2019-03-12T00:35:26.604Z,2.02
2019-03-12T00:37:57.111Z,1.97
2019-03-12T00:40:28.111Z,2.01
2019-03-12T00:42:58.845Z,1.99
2019-03-12T00:45:29.373Z,2.03
2019-03-12T00:48:01.882Z,1.96
2019-03-12T00:50:31.836Z,1.96
2019-03-12T00:53:02.350Z,1.97
2019-03-12T00:55:32.217Z,2.06
2019-03-12T00:58:02.755Z,2.06
2019-03-12T01:00:33.400Z,2.10
2019-03-12T01:03:03.626Z,2.08
2019-03-12T01:05:33.613Z,2.07
2019-03-12T01:08:04.115Z,2.04
2019-03-12T01:10:34.660Z,2.03
2019-03-12T01:13:06.164Z,2.05
2019-03-12T01:15:36.700Z,2.02
2019-03-12T01:18:07.330Z,1.96
2019-03-12T01:20:38.003Z,1.97
2019-03-12T01:23:07.962Z,1.94
2019-03-12T01:25:38.469Z,1.90
2019-03-12T01:28:09.016Z,1.95
2019-03-12T01:30:39.583Z,1.96
2019-03-12T01:33:09.536Z,1.90
2019-03-12T01:35:40.070Z,1.95
2019-03-12T01:38:10.031Z,1.92
2019-03-12T01:40:41.576Z,1.90
2019-03-12T01:43:12.215Z,1.81
2019-03-12T01:45:42.181Z,1.81
2019-03-12T01:48:12.595Z,1.83
2019-03-12T01:50:42.678Z,1.82
2019-03-12T01:53:13.198Z,1.80
2019-03-12T01:55:43.731Z,1.78
2019-03-12T01:58:14.747Z,1.84
2019-03-12T02:00:45.341Z,1.83
2019-03-12T02:03:15.319Z,1.81
2019-03-12T02:05:45.841Z,1.79
2019-03-12T02:08:15.692Z,1.77
2019-03-12T02:10:46.227Z,1.75
2019-03-12T02:13:16.287Z,1.69
2019-03-12T02:15:46.811Z,1.71
2019-03-12T02:18:16.881Z,1.73
2019-03-12T02:20:47.380Z,1.69
2019-03-12T02:23:17.250Z,1.70
2019-03-12T02:25:47.750Z,1.68
2019-03-12T02:28:18.534Z,1.60
2019-03-12T02:30:49.110Z,1.66
2019-03-12T02:33:19.148Z,1.65
2019-03-12T02:35:49.675Z,1.64
2019-03-12T02:38:20.209Z,1.63
2019-03-12T02:40:51.311Z,1.63
2019-03-12T02:43:22.021Z,1.69
2019-03-12T02:45:52.568Z,1.69
2019-03-12T02:48:22.434Z,1.71
2019-03-12T02:50:52.969Z,1.70
2019-03-12T02:53:23.625Z,1.67
2019-03-12T02:55:54.275Z,1.73
2019-03-12T02:58:24.906Z,1.75
2019-03-12T03:00:54.772Z,1.74
2019-03-12T03:03:25.307Z,1.71
2019-03-12T03:05:57.495Z,1.72
2019-03-12T03:08:29.679Z,1.70
2019-03-12T03:11:00.326Z,1.70
2019-03-12T03:13:30.984Z,1.75
2019-03-12T03:16:01.517Z,1.75
2019-03-12T03:18:32.370Z,1.73
2019-03-12T03:21:02.347Z,1.72
2019-03-12T03:23:32.852Z,1.72
2019-03-12T03:26:03.506Z,1.74
2019-03-12T03:28:33.371Z,1.72
2019-03-12T03:31:03.960Z,1.73
2019-03-12T03:33:34.788Z,1.69
2019-03-12T03:36:05.412Z,1.73
2019-03-12T03:38:36.064Z,1.79
2019-03-12T03:41:07.189Z,1.86
2019-03-12T03:43:37.578Z,1.74
2019-03-12T03:46:07.426Z,1.77
2019-03-12T03:48:37.953Z,1.77
2019-03-12T03:51:08.614Z,1.73
2019-03-12T03:53:38.569Z,1.71
2019-03-12T03:56:09.070Z,1.87
2019-03-12T03:58:39.627Z,1.78
2019-03-12T04:01:10.173Z,1.79
2019-03-12T04:03:40.158Z,1.75
2019-03-12T04:06:10.561Z,1.86
2019-03-12T04:08:41.105Z,1.80
2019-03-12T04:11:11.084Z,1.75
2019-03-12T04:13:41.498Z,1.76
2019-03-12T04:16:11.456Z,1.68
2019-03-12T04:18:41.990Z,1.71
2019-03-12T04:21:12.622Z,1.75
2019-03-12T04:23:43.172Z,1.71
2019-03-12T04:26:13.736Z,1.80
2019-03-12T04:28:43.857Z,1.84
2019-03-12T04:31:14.328Z,1.82
2019-03-12T04:34:02.958Z,1.82
2019-03-12T04:36:33.629Z,1.83
2019-03-12T04:39:05.014Z,1.84
2019-03-12T04:41:35.650Z,1.87
2019-03-12T04:44:06.095Z,1.87
2019-03-12T04:46:36.054Z,1.88
2019-03-12T04:49:06.459Z,1.95
2019-03-12T04:51:36.538Z,1.99
2019-03-12T04:54:06.945Z,2.03
2019-03-12T04:56:37.126Z,2.11
2019-03-12T04:59:07.645Z,2.16
2019-03-12T05:01:37.713Z,2.31
2019-03-12T05:04:08.220Z,2.28
2019-03-12T05:06:38.772Z,2.43
2019-03-12T05:09:09.545Z,2.29
2019-03-12T05:11:40.296Z,2.35
2019-03-12T05:14:25.145Z,2.34
2019-03-12T05:16:58.272Z,2.32
2019-03-12T05:19:30.007Z,2.24
2019-03-12T05:22:00.389Z,2.16
2019-03-12T05:24:31.246Z,2.09
2019-03-12T05:27:01.903Z,2.01
2019-03-12T05:29:32.641Z,1.94
2019-03-12T05:32:03.288Z,2.00
2019-03-12T05:34:34.142Z,2.08
2019-03-12T05:37:04.812Z,2.07
2019-03-12T05:39:35.460Z,1.92
2019-03-12T05:42:06.342Z,2.08
2019-03-12T05:44:36.956Z,2.24
2019-03-12T05:47:08.295Z,2.22
2019-03-12T05:49:39.081Z,2.20
2019-03-12T05:52:09.948Z,2.28
2019-03-12T05:54:40.601Z,2.30
2019-03-12T05:57:10.560Z,2.23
2019-03-12T05:59:41.086Z,2.26
2019-03-12T06:02:11.722Z,2.28
2019-03-12T06:04:41.800Z,2.27
2019-03-12T06:07:12.325Z,2.31
2019-03-12T06:09:42.959Z,2.20
2019-03-12T06:12:13.505Z,2.25
2019-03-12T06:14:43.586Z,2.32
2019-03-12T06:17:14.009Z,2.48
2019-03-12T06:19:44.555Z,2.47
2019-03-12T06:22:15.210Z,2.48
2019-03-12T06:24:45.862Z,2.44
2019-03-12T06:27:18.183Z,2.49
2019-03-12T06:29:48.680Z,2.39
2019-03-12T06:32:20.400Z,2.60
2019-03-12T06:34:52.559Z,2.82
2019-03-12T06:37:27.611Z,3.01
2019-03-12T06:40:08.368Z,3.15
2019-03-12T06:42:44.666Z,3.35
2019-03-12T06:45:33.502Z,3.57
2019-03-12T06:48:05.808Z,3.47
2019-03-12T06:50:38.076Z,3.57
2019-03-12T06:53:16.416Z,3.24
2019-03-12T06:56:03.839Z,3.28
2019-03-12T06:58:51.571Z,3.51
2019-03-12T07:01:29.995Z,3.72
2019-03-12T07:04:08.422Z,3.62
2019-03-12T07:07:00.712Z,3.62
2019-03-12T07:09:49.209Z,3.46
2019-03-12T07:12:37.155Z,3.70
2019-03-12T07:15:23.318Z,3.63
2019-03-12T07:17:55.711Z,3.72
2019-03-12T07:20:37.426Z,4.20
2019-03-12T07:23:15.422Z,4.21
2019-03-12T07:25:50.655Z,3.99
2019-03-12T07:28:49.528Z,4.05
2019-03-12T07:31:14.447Z,4.16
2019-03-12T07:34:02.936Z,4.06
2019-03-12T07:36:41.571Z,4.14
2019-03-12T07:39:20.307Z,4.51
2019-03-12T07:41:52.574Z,4.30
2019-03-12T07:44:31.740Z,4.14
2019-03-12T07:47:04.122Z,4.30
2019-03-12T07:49:36.310Z,4.73
2019-03-12T07:52:08.971Z,4.24
2019-03-12T07:54:47.020Z,4.68
2019-03-12T07:57:31.682Z,5.29
2019-03-12T08:00:10.146Z,5.34
2019-03-12T08:02:42.499Z,5.03
2019-03-12T08:05:21.114Z,4.89
2019-03-12T08:07:53.299Z,4.71
2019-03-12T08:10:43.788Z,4.50
2019-03-12T08:13:32.549Z,4.82
2019-03-12T08:16:04.953Z,5.10
2019-03-12T08:18:43.174Z,5.23
2019-03-12T08:21:27.510Z,5.51
2019-03-12T08:24:14.950Z,5.96
2019-03-12T08:26:52.641Z,5.85
2019-03-12T08:29:24.947Z,5.91
2019-03-12T08:32:00.101Z,5.79
2019-03-12T08:34:41.288Z,6.18
2019-03-12T08:37:13.675Z,6.50
2019-03-12T08:40:02.413Z,6.08
2019-03-12T08:42:54.055Z,6.30
2019-03-12T08:45:34.619Z,6.48
2019-03-12T08:48:12.634Z,6.76
2019-03-12T08:50:43.884Z,6.35
2019-03-12T08:53:18.730Z,6.11
2019-03-12T08:55:59.814Z,6.61
2019-03-12T08:58:32.100Z,6.37
2019-03-12T09:01:07.457Z,6.41
2019-03-12T09:03:51.402Z,6.64
2019-03-12T09:06:23.592Z,6.97
2019-03-12T09:08:58.858Z,6.93
2019-03-12T09:11:46.269Z,6.78
2019-03-12T09:14:24.281Z,6.98
2019-03-12T09:17:02.229Z,7.07
2019-03-12T09:19:34.299Z,7.26
2019-03-12T09:22:06.694Z,6.93
2019-03-12T09:24:48.063Z,6.43
2019-03-12T09:27:23.118Z,6.57
2019-03-12T09:29:55.311Z,6.89
2019-03-12T09:32:27.788Z,6.62
2019-03-12T09:35:15.112Z,6.83
2019-03-12T09:37:59.485Z,6.79
2019-03-12T09:40:37.791Z,6.75
2019-03-12T09:43:13.247Z,6.75
2019-03-12T09:45:48.417Z,6.50
2019-03-12T09:48:27.140Z,6.30
2019-03-12T09:50:59.437Z,6.69
2019-03-12T09:53:40.725Z,6.96
2019-03-12T09:56:15.976Z,6.41
2019-03-12T09:58:51.318Z,6.48
2019-03-12T10:01:39.049Z,6.56
2019-03-12T10:04:13.808Z,6.87
2019-03-12T10:06:55.097Z,7.17
2019-03-12T10:09:43.835Z,7.38
2019-03-12T10:12:21.848Z,7.56
2019-03-12T10:15:05.592Z,7.34
2019-03-12T10:17:43.815Z,7.64
2019-03-12T10:20:24.997Z,7.64
2019-03-12T10:22:57.186Z,8.25
2019-03-12T10:25:35.300Z,7.77
2019-03-12T10:28:07.486Z,7.46
2019-03-12T10:30:48.793Z,7.82
2019-03-12T10:33:36.095Z,7.56
2019-03-12T10:36:14.590Z,7.73
2019-03-12T10:39:32.649Z,7.15
2019-03-12T10:42:08.088Z,7.23
2019-03-12T10:44:52.359Z,7.64
2019-03-12T10:47:27.389Z,7.17
2019-03-12T10:49:58.043Z,6.96
2019-03-12T10:52:28.021Z,7.42
2019-03-12T10:55:11.740Z,7.79
2019-03-12T10:57:30.528Z,7.49
2019-03-12T11:00:00.973Z,7.29
2019-03-12T11:02:31.524Z,7.38
2019-03-12T11:05:02.055Z,7.38
2019-03-12T11:07:32.134Z,7.71
2019-03-12T11:10:02.551Z,7.23
2019-03-12T11:12:32.422Z,7.31
2019-03-12T11:15:02.940Z,7.53
2019-03-12T11:17:32.890Z,7.29
2019-03-12T11:20:03.817Z,6.75
2019-03-12T11:22:34.071Z,7.27
2019-03-12T11:25:06.046Z,7.42
2019-03-12T11:27:36.283Z,7.94
2019-03-12T11:30:07.998Z,7.60
2019-03-12T11:32:38.505Z,7.31
2019-03-12T11:35:09.061Z,7.70
2019-03-12T11:37:39.211Z,7.64
2019-03-12T11:40:13.869Z,7.84
2019-03-12T11:42:44.300Z,7.80
2019-03-12T11:45:18.156Z,7.83
2019-03-12T11:47:47.341Z,8.15
2019-03-12T11:50:22.430Z,8.40
2019-03-12T11:52:56.980Z,7.97
2019-03-12T11:55:25.005Z,7.73
2019-03-12T11:57:54.974Z,7.55
2019-03-12T12:00:39.250Z,7.83
2019-03-12T12:03:09.965Z,7.78
2019-03-12T12:05:40.193Z,7.89
2019-03-12T12:08:11.613Z,8.09
2019-03-12T12:10:42.229Z,8.39
2019-03-12T12:13:12.959Z,8.44
2019-03-12T12:15:43.722Z,7.95
2019-03-12T12:18:13.706Z,7.40
2019-03-12T12:20:44.220Z,8.10
2019-03-12T12:23:14.283Z,8.28
2019-03-12T12:25:44.687Z,8.00
2019-03-12T12:28:15.361Z,7.98
2019-03-12T12:30:45.420Z,7.96
2019-03-12T12:33:15.842Z,7.97
2019-03-12T12:35:45.907Z,7.96
2019-03-12T12:38:16.431Z,7.72
2019-03-12T12:40:46.492Z,8.20
2019-03-12T12:43:16.905Z,8.33
2019-03-12T12:45:46.976Z,8.08
2019-03-12T12:48:18.529Z,8.25
2019-03-12T12:51:02.536Z,7.49
2019-03-12T12:53:21.444Z,7.54
2019-03-12T12:55:51.995Z,7.63
2019-03-12T12:58:21.967Z,7.52
2019-03-12T13:00:52.486Z,7.46
2019-03-12T13:03:22.451Z,7.68
2019-03-12T13:05:55.478Z,7.36
2019-03-12T13:08:25.152Z,6.97
2019-03-12T13:10:55.701Z,7.09
2019-03-12T13:13:26.267Z,7.22
2019-03-12T13:15:56.697Z,7.26
2019-03-12T13:18:26.667Z,7.50
2019-03-12T13:20:57.181Z,7.51
2019-03-12T13:23:27.052Z,7.41
2019-03-12T13:25:57.582Z,7.27
2019-03-12T13:28:27.646Z,7.30
2019-03-12T13:30:58.048Z,7.09
2019-03-12T13:33:28.702Z,7.02
2019-03-12T13:35:59.251Z,6.78
2019-03-12T13:38:44.853Z,6.75
2019-03-12T13:41:03.507Z,6.86
2019-03-12T13:43:33.868Z,6.86
2019-03-12T13:46:04.421Z,6.77
2019-03-12T13:48:35.441Z,6.79
2019-03-12T13:51:05.067Z,6.86
2019-03-12T13:53:36.081Z,6.72
2019-03-12T13:56:06.747Z,6.85
2019-03-12T13:58:37.691Z,6.87
2019-03-12T14:01:08.349Z,6.84
2019-03-12T14:03:38.994Z,6.76
2019-03-12T14:06:09.644Z,6.76
2019-03-12T14:08:40.300Z,6.57
2019-03-12T14:11:10.254Z,6.39
2019-03-12T14:13:40.781Z,6.32
2019-03-12T14:16:10.842Z,6.29
2019-03-12T14:18:41.367Z,6.29
2019-03-12T14:21:12.972Z,6.15
2019-03-12T14:23:58.714Z,6.05
2019-03-12T14:26:29.054Z,5.99
2019-03-12T14:28:59.135Z,5.95
2019-03-12T14:31:29.659Z,5.97
2019-03-12T14:34:00.311Z,5.89
2019-03-12T14:36:30.962Z,5.90
2019-03-12T14:39:01.596Z,5.90
2019-03-12T14:41:31.575Z,5.78
2019-03-12T14:44:02.084Z,5.77
2019-03-12T14:46:32.733Z,5.74
2019-03-12T14:49:03.019Z,5.66
2019-03-12T14:51:42.523Z,5.54
2019-03-12T14:54:13.695Z,5.56
2019-03-12T14:56:43.929Z,5.51
2019-03-12T14:59:14.010Z,5.50
2019-03-12T15:01:44.432Z,5.50
2019-03-12T15:04:15.187Z,5.48
2019-03-12T15:06:45.252Z,5.47
2019-03-12T15:09:15.960Z,5.41
2019-03-12T15:11:46.613Z,5.35
2019-03-12T15:14:17.170Z,5.35
2019-03-12T15:16:47.244Z,5.35
2019-03-12T15:19:17.750Z,5.27
2019-03-12T15:21:47.719Z,5.21
2019-03-12T15:24:18.242Z,5.18
2019-03-12T15:26:49.113Z,5.20
2019-03-12T15:29:19.638Z,5.11
2019-03-12T15:32:03.122Z,5.12
2019-03-12T15:34:22.292Z,5.05
2019-03-12T15:36:52.352Z,4.93
2019-03-12T15:39:22.774Z,4.85
2019-03-12T15:41:54.039Z,4.79
2019-03-12T15:44:23.993Z,4.72
2019-03-12T15:46:54.527Z,4.72
2019-03-12T15:49:25.487Z,4.72
2019-03-12T15:51:56.315Z,4.68
2019-03-12T15:54:27.180Z,4.58
2019-03-12T15:56:57.933Z,4.46
2019-03-12T15:59:28.701Z,4.39
2019-03-12T16:01:59.354Z,4.34
2019-03-12T16:04:30.091Z,4.26
2019-03-12T16:07:01.887Z,4.18
2019-03-12T16:09:32.540Z,4.12
2019-03-12T16:12:03.275Z,4.06
2019-03-12T16:14:33.942Z,4.04
2019-03-12T16:17:04.781Z,4.05
2019-03-12T16:19:35.535Z,3.96
2019-03-12T16:22:06.306Z,3.81
2019-03-12T16:24:36.942Z,3.74
2019-03-12T16:27:07.798Z,3.64
2019-03-12T16:29:38.671Z,3.59
2019-03-12T16:32:09.425Z,3.57
2019-03-12T16:34:40.059Z,3.58
2019-03-12T16:37:10.932Z,3.51
2019-03-12T16:39:41.675Z,3.48
2019-03-12T16:42:12.424Z,3.42
2019-03-12T16:44:43.192Z,3.39
2019-03-12T16:47:14.034Z,3.32
2019-03-12T16:49:44.891Z,3.24
2019-03-12T16:52:15.765Z,3.18
2019-03-12T16:54:46.502Z,3.19
2019-03-12T16:57:17.372Z,3.22
2019-03-12T16:59:48.126Z,3.23
2019-03-12T17:02:18.863Z,3.13
2019-03-12T17:04:49.739Z,3.10
2019-03-12T17:07:20.592Z,3.04
2019-03-12T17:09:51.344Z,2.97
2019-03-12T17:12:21.983Z,2.91
2019-03-12T17:14:52.841Z,2.75
2019-03-12T17:17:23.614Z,2.69
2019-03-12T17:19:54.465Z,2.65
2019-03-12T17:22:24.513Z,2.60
2019-03-12T17:24:54.849Z,2.61
2019-03-12T17:27:28.358Z,2.58
2019-03-12T17:30:00.403Z,2.46
2019-03-12T17:32:32.728Z,2.35
2019-03-12T17:35:03.363Z,2.25
2019-03-12T17:37:33.331Z,2.22
2019-03-12T17:40:04.055Z,2.18
2019-03-12T17:42:34.933Z,2.22
2019-03-12T17:45:08.397Z,2.25
2019-03-12T17:47:39.021Z,2.32
2019-03-12T17:50:12.285Z,2.31
2019-03-12T17:52:42.957Z,2.30
2019-03-12T17:55:15.355Z,2.27
2019-03-12T17:57:45.879Z,2.26
2019-03-12T18:00:22.365Z,2.20
2019-03-12T18:02:53.233Z,2.20
2019-03-12T18:05:24.089Z,2.20
2019-03-12T18:07:54.844Z,2.16
2019-03-12T18:10:25.479Z,2.26
2019-03-12T18:12:56.666Z,2.26
2019-03-12T18:15:27.088Z,2.19
2019-03-12T18:17:57.859Z,2.16
2019-03-12T18:20:28.493Z,2.15
2019-03-12T18:22:59.352Z,2.15
2019-03-12T18:25:38.389Z,2.09
2019-03-12T18:28:10.166Z,2.01
2019-03-12T18:30:40.637Z,2.01
2019-03-12T18:33:11.364Z,2.00
2019-03-12T18:35:42.143Z,2.01
2019-03-12T18:38:12.996Z,1.95
2019-03-12T18:40:43.850Z,1.93
2019-03-12T18:43:15.104Z,1.83
2019-03-12T18:45:45.795Z,1.78
2019-03-12T18:48:16.622Z,1.67
2019-03-12T18:50:48.286Z,1.65
2019-03-12T18:53:19.136Z,1.63
2019-03-12T18:55:53.182Z,1.56
2019-03-12T18:58:23.625Z,1.54
2019-03-12T19:00:54.466Z,1.48
2019-03-12T19:03:24.430Z,1.37
2019-03-12T19:05:54.966Z,1.31
2019-03-12T19:08:24.823Z,1.24
2019-03-12T19:10:55.351Z,1.18
2019-03-12T19:13:25.985Z,1.15
2019-03-12T19:15:55.949Z,1.15
2019-03-12T19:18:26.468Z,1.10
2019-03-12T19:20:57.239Z,1.19
2019-03-12T19:23:28.087Z,1.20
2019-03-12T19:25:58.832Z,1.14
2019-03-12T19:28:29.588Z,1.10
2019-03-12T19:31:13.944Z,1.03
2019-03-12T19:33:44.703Z,0.91
2019-03-12T19:36:15.568Z,0.89
2019-03-12T19:38:46.430Z,0.77
2019-03-12T19:41:17.091Z,0.75
2019-03-12T19:43:48.019Z,0.77
2019-03-12T19:46:18.791Z,0.72
2019-03-12T19:48:49.787Z,0.81
2019-03-12T19:51:21.217Z,0.64
2019-03-12T19:53:51.750Z,0.67
2019-03-12T19:56:22.623Z,0.64
2019-03-12T19:58:53.479Z,0.59
2019-03-12T20:01:24.112Z,0.47
2019-03-12T20:03:54.458Z,0.53
2019-03-12T20:06:24.552Z,0.57
2019-03-12T20:08:55.050Z,0.71
2019-03-12T20:11:48.519Z,0.89
2019-03-12T20:14:51.086Z,0.96
2019-03-12T20:17:36.955Z,1.09
2019-03-12T20:20:41.074Z,1.18
2019-03-12T20:23:31.647Z,1.12
2019-03-12T20:26:34.228Z,0.91
2019-03-12T20:29:20.223Z,0.78
2019-03-12T20:32:11.613Z,0.74
2019-03-12T20:35:06.320Z,0.63
2019-03-12T20:38:13.483Z,0.56
2019-03-12T20:40:49.384Z,0.43
2019-03-12T20:43:42.084Z,0.34
2019-03-12T20:46:38.604Z,0.35
2019-03-12T20:49:38.214Z,0.27
2019-03-12T20:52:32.685Z,0.15
2019-03-12T20:55:40.167Z,0.12
2019-03-12T20:58:47.538Z,0.10
2019-03-12T21:01:30.461Z,0.22
2019-03-12T21:04:19.519Z,0.31
2019-03-12T21:06:53.550Z,0.53
2019-03-12T21:09:43.719Z,0.59
2019-03-12T21:12:23.574Z,0.60
2019-03-12T21:15:26.133Z,0.64
2019-03-12T21:18:22.669Z,0.64
2019-03-12T21:21:21.968Z,0.58
2019-03-12T21:24:01.113Z,0.67
2019-03-12T21:26:43.400Z,0.70
2019-03-12T21:29:45.040Z,0.67
2019-03-12T21:32:16.715Z,0.64
2019-03-12T21:34:47.384Z,0.58
2019-03-12T21:37:17.816Z,0.60
2019-03-12T21:39:55.325Z,0.74
2019-03-12T21:42:20.690Z,0.76
2019-03-12T21:44:52.736Z,0.85
2019-03-12T21:47:23.079Z,0.89
2019-03-12T21:49:53.045Z,0.91
2019-03-12T21:52:24.486Z,0.84
2019-03-12T21:54:55.339Z,0.75
2019-03-12T21:57:26.094Z,0.66
2019-03-12T21:59:56.061Z,0.67
2019-03-12T22:02:26.581Z,0.66
2019-03-12T22:04:57.332Z,0.70
2019-03-12T22:07:28.089Z,0.61
2019-03-12T22:09:59.045Z,0.53
2019-03-12T22:12:29.920Z,0.62
2019-03-12T22:15:00.653Z,0.51
2019-03-12T22:17:31.511Z,0.43
2019-03-12T22:20:01.692Z,0.51
2019-03-12T22:22:33.758Z,0.44
2019-03-12T22:25:06.790Z,0.36
2019-03-12T22:27:37.200Z,0.39
2019-03-12T22:30:14.180Z,0.44
2019-03-12T22:32:44.833Z,0.48
2019-03-12T22:35:14.927Z,0.58
2019-03-12T22:37:45.439Z,0.66
2019-03-12T22:40:16.276Z,0.80
2019-03-12T22:42:47.128Z,0.90
2019-03-12T22:45:17.884Z,0.91
2019-03-12T22:47:48.637Z,0.91
2019-03-12T22:50:19.288Z,0.95
2019-03-12T22:52:51.902Z,1.02
2019-03-12T22:55:22.653Z,1.06
2019-03-12T22:57:53.500Z,0.99
2019-03-12T23:00:24.249Z,0.99
2019-03-12T23:02:54.811Z,0.89
2019-03-12T23:05:25.575Z,0.83
2019-03-12T23:07:56.321Z,0.74
2019-03-12T23:10:27.386Z,0.83
2019-03-12T23:12:58.235Z,0.76
2019-03-12T23:15:28.685Z,0.66
2019-03-12T23:17:59.447Z,0.79
2019-03-12T23:20:30.189Z,0.81
2019-03-12T23:23:00.847Z,0.72
2019-03-12T23:25:31.702Z,0.74
2019-03-12T23:28:02.454Z,0.60
2019-03-12T23:30:33.113Z,0.65
2019-03-12T23:33:03.960Z,0.95
2019-03-12T23:35:34.823Z,1.02
2019-03-12T23:38:05.579Z,1.10
2019-03-12T23:40:36.222Z,1.15
2019-03-12T23:43:06.978Z,1.30
2019-03-12T23:45:37.835Z,1.15
2019-03-12T23:48:08.589Z,1.22
2019-03-12T23:50:39.443Z,1.12
2019-03-12T23:53:10.508Z,0.92
2019-03-12T23:55:40.955Z,0.85
2019-03-12T23:58:11.707Z,0.74
